createdAt,value
2022-12-12T00:01:53.352Z,0.00
2022-12-12T00:04:20.171Z,0.00
2022-12-12T00:06:46.959Z,0.00
2022-12-12T00:09:13.802Z,-0.20
2022-12-12T00:11:40.913Z,-0.40
2022-12-12T00:14:08.172Z,-0.30
2022-12-12T00:16:34.918Z,-0.40
2022-12-12T00:19:01.653Z,-0.50
2022-12-12T00:21:29.606Z,-0.40
2022-12-12T00:23:57.437Z,-0.40
2022-12-12T00:26:26.875Z,-0.40
2022-12-12T00:28:54.425Z,-0.60
2022-12-12T00:31:22.137Z,-0.60
2022-12-12T00:33:50.226Z,-0.50
2022-12-12T00:36:20.274Z,-0.30
2022-12-12T00:38:48.062Z,-0.40
2022-12-12T00:41:15.456Z,-0.20
2022-12-12T00:43:42.692Z,-0.30
2022-12-12T00:46:11.222Z,-0.60
2022-12-12T00:48:38.038Z,-0.80
2022-12-12T00:51:10.899Z,-0.50
2022-12-12T00:53:39.052Z,-0.40
2022-12-12T00:56:06.267Z,-0.60
2022-12-12T00:58:33.692Z,-0.60
2022-12-12T01:01:06.590Z,-0.50
2022-12-12T01:03:35.129Z,-0.50
2022-12-12T01:06:02.016Z,-0.40
2022-12-12T01:08:29.187Z,-0.60
2022-12-12T01:10:55.992Z,-0.40
2022-12-12T01:13:22.712Z,-0.20
2022-12-12T01:15:50.025Z,-0.20
2022-12-12T01:18:17.548Z,-0.50
2022-12-12T01:20:44.509Z,-0.40
2022-12-12T01:23:11.786Z,-0.70
2022-12-12T01:25:38.627Z,-0.90
2022-12-12T01:28:05.991Z,-0.80
2022-12-12T01:30:32.999Z,-0.70
2022-12-12T01:33:00.069Z,-0.80
2022-12-12T01:35:27.064Z,-0.90
2022-12-12T01:37:54.403Z,-1.00
2022-12-12T01:40:27.096Z,-0.50
2022-12-12T01:42:54.954Z,-0.50
2022-12-12T01:45:58.967Z,-0.70
2022-12-12T01:48:28.919Z,-0.70
2022-12-12T01:50:59.675Z,-1.10
2022-12-12T01:53:29.639Z,-1.10
2022-12-12T01:55:57.442Z,-1.00
2022-12-12T01:58:25.065Z,-0.80
2022-12-12T02:00:52.090Z,-0.60
2022-12-12T02:03:18.915Z,-0.70
2022-12-12T02:05:53.342Z,-0.80
2022-12-12T02:08:22.269Z,-0.80
2022-12-12T02:10:49.474Z,-0.60
2022-12-12T02:13:20.814Z,-1.00
2022-12-12T02:16:08.082Z,-0.70
2022-12-12T02:18:53.004Z,-0.80
2022-12-12T02:21:38.352Z,-0.80
2022-12-12T02:24:12.622Z,-0.70
2022-12-12T02:27:14.173Z,-0.80
2022-12-12T02:30:02.736Z,-1.00
2022-12-12T02:32:56.967Z,-1.20
2022-12-12T02:35:35.368Z,-1.30
2022-12-12T02:38:19.847Z,-1.30
2022-12-12T02:40:51.087Z,-1.20
2022-12-12T02:43:36.349Z,-1.10
2022-12-12T02:46:13.170Z,-1.10
2022-12-12T02:49:01.823Z,-1.30
2022-12-12T02:51:31.946Z,-1.30
2022-12-12T02:54:00.241Z,-1.40
2022-12-12T02:56:45.467Z,-1.40
2022-12-12T02:59:16.878Z,-1.00
2022-12-12T03:02:08.479Z,-1.30
2022-12-12T03:05:02.541Z,-1.20
2022-12-12T03:07:47.589Z,-1.30
2022-12-12T03:10:31.830Z,-1.40
2022-12-12T03:13:10.399Z,-1.50
2022-12-12T03:15:37.105Z,-1.40
2022-12-12T03:18:22.157Z,-1.60
2022-12-12T03:21:05.118Z,-1.70
2022-12-12T03:23:41.696Z,-1.80
2022-12-12T03:26:42.859Z,-1.70
2022-12-12T03:29:14.367Z,-1.80
2022-12-12T03:31:45.891Z,-1.60
2022-12-12T03:34:25.989Z,-1.50
2022-12-12T03:37:05.423Z,-1.50
2022-12-12T03:39:44.864Z,-1.40
2022-12-12T03:42:21.289Z,-1.60
2022-12-12T03:45:17.724Z,-1.40
2022-12-12T03:47:59.982Z,-1.20
2022-12-12T03:50:35.175Z,-1.50
2022-12-12T03:53:19.906Z,-1.70
2022-12-12T03:55:53.766Z,-1.70
2022-12-12T03:58:42.527Z,-1.60
2022-12-12T04:01:12.823Z,-1.70
2022-12-12T04:03:54.890Z,-1.80
2022-12-12T04:06:29.458Z,-1.90
2022-12-12T04:09:25.024Z,-1.90
2022-12-12T04:12:38.269Z,-2.20
2022-12-12T04:15:26.264Z,-2.10
2022-12-12T04:18:14.135Z,-2.30
2022-12-12T04:20:59.451Z,-2.30
2022-12-12T04:23:33.138Z,-2.20
2022-12-12T04:26:21.417Z,-2.30
2022-12-12T04:28:56.762Z,-2.10
2022-12-12T04:31:27.084Z,-2.00
2022-12-12T04:34:01.152Z,-2.10
2022-12-12T04:36:29.153Z,-2.00
2022-12-12T04:38:56.961Z,-2.10
2022-12-12T04:41:27.020Z,-2.20
2022-12-12T04:43:56.319Z,-2.20
2022-12-12T04:46:26.652Z,-2.00
2022-12-12T04:49:02.884Z,-2.00
2022-12-12T04:51:37.384Z,-2.00
2022-12-12T04:54:38.748Z,-2.20
2022-12-12T04:57:09.640Z,-2.10
2022-12-12T04:59:36.784Z,-2.30
2022-12-12T05:02:29.730Z,-2.00
2022-12-12T05:05:23.001Z,-2.30
2022-12-12T05:07:56.008Z,-2.30
2022-12-12T05:10:22.823Z,-2.40
2022-12-12T05:12:53.663Z,-2.60
2022-12-12T05:15:20.805Z,-2.20
2022-12-12T05:18:17.089Z,-2.20
2022-12-12T05:20:43.912Z,-1.70
2022-12-12T05:23:10.661Z,-1.60
2022-12-12T05:25:37.598Z,-1.60
2022-12-12T05:28:04.547Z,-1.40
2022-12-12T05:30:31.361Z,-1.30
2022-12-12T05:32:58.162Z,-1.40
2022-12-12T05:35:25.243Z,-1.40
2022-12-12T05:37:52.403Z,-1.80
2022-12-12T05:40:20.423Z,-1.40
2022-12-12T05:42:48.207Z,-1.60
2022-12-12T05:45:15.546Z,-1.90
2022-12-12T05:47:42.563Z,-2.00
2022-12-12T05:50:09.526Z,-2.20
2022-12-12T05:52:36.548Z,-2.30
2022-12-12T05:55:04.085Z,-2.50
2022-12-12T05:57:30.908Z,-2.50
2022-12-12T05:59:57.624Z,-2.60
2022-12-12T06:02:24.716Z,-2.60
2022-12-12T06:04:51.511Z,-2.50
2022-12-12T06:07:18.391Z,-2.60
2022-12-12T06:09:45.148Z,-2.40
2022-12-12T06:12:12.175Z,-2.50
2022-12-12T06:14:39.414Z,-2.50
2022-12-12T06:17:06.327Z,-2.40
2022-12-12T06:19:33.454Z,-2.10
2022-12-12T06:22:00.345Z,-2.10
2022-12-12T06:24:27.201Z,-2.20
2022-12-12T06:26:53.975Z,-2.30
2022-12-12T06:29:20.947Z,-2.60
2022-12-12T06:31:47.941Z,-2.60
2022-12-12T06:34:15.105Z,-2.20
2022-12-12T06:36:41.911Z,-2.50
2022-12-12T06:39:09.670Z,-2.80
2022-12-12T06:41:37.023Z,-2.90
2022-12-12T06:44:04.425Z,-3.10
2022-12-12T06:46:31.290Z,-3.20
2022-12-12T06:48:58.415Z,-3.20
2022-12-12T06:51:32.729Z,-3.20
2022-12-12T06:53:59.541Z,-3.20
2022-12-12T06:56:27.194Z,-3.20
2022-12-12T06:58:55.818Z,-3.30
2022-12-12T07:01:24.232Z,-3.30
2022-12-12T07:03:52.157Z,-3.40
2022-12-12T07:06:20.838Z,-3.50
2022-12-12T07:08:48.255Z,-3.50
2022-12-12T07:11:17.806Z,-3.50
2022-12-12T07:13:45.297Z,-3.20
2022-12-12T07:16:12.538Z,-3.10
2022-12-12T07:18:39.393Z,-3.00
2022-12-12T07:21:07.820Z,-3.20
2022-12-12T07:23:35.011Z,-3.40
2022-12-12T07:26:08.176Z,-3.50
2022-12-12T07:28:35.309Z,-3.50
2022-12-12T07:31:07.226Z,-3.10
2022-12-12T07:33:43.188Z,-2.90
2022-12-12T07:36:14.215Z,-2.90
2022-12-12T07:38:41.394Z,-2.90
2022-12-12T07:41:10.670Z,-3.00
2022-12-12T07:43:43.287Z,-2.90
2022-12-12T07:46:17.642Z,-3.10
2022-12-12T07:48:45.058Z,-3.20
2022-12-12T07:51:12.261Z,-3.20
2022-12-12T07:53:39.079Z,-3.00
2022-12-12T07:56:10.183Z,-3.10
2022-12-12T07:58:37.207Z,-3.30
2022-12-12T08:01:14.943Z,-3.10
2022-12-12T08:03:43.492Z,-3.20
2022-12-12T08:06:11.169Z,-3.00
2022-12-12T08:08:38.007Z,-3.20
2022-12-12T08:11:10.210Z,-3.20
2022-12-12T08:13:38.685Z,-2.90
2022-12-12T08:16:07.418Z,-3.10
2022-12-12T08:18:34.599Z,-3.20
2022-12-12T08:21:01.606Z,-3.20
2022-12-12T08:23:28.567Z,-3.20
2022-12-12T08:25:55.333Z,-3.10
2022-12-12T08:28:22.145Z,-3.20
2022-12-12T08:30:50.464Z,-3.00
2022-12-12T08:33:18.082Z,-3.10
2022-12-12T08:35:45.149Z,-3.00
2022-12-12T08:38:11.970Z,-3.00
2022-12-12T08:40:39.355Z,-2.80
2022-12-12T08:43:06.170Z,-2.70
2022-12-12T08:45:33.162Z,-2.90
2022-12-12T08:48:00.189Z,-2.70
2022-12-12T08:50:26.938Z,-2.50
2022-12-12T08:52:54.408Z,-2.30
2022-12-12T08:55:21.279Z,-2.30
2022-12-12T08:57:48.018Z,-2.30
2022-12-12T09:00:15.445Z,-2.40
2022-12-12T09:02:42.351Z,-2.40
2022-12-12T09:05:10.108Z,-2.20
2022-12-12T09:07:38.188Z,-2.10
2022-12-12T09:10:06.401Z,-2.20
2022-12-12T09:12:39.849Z,-2.20
2022-12-12T09:15:09.092Z,-2.20
2022-12-12T09:17:35.959Z,-2.00
2022-12-12T09:20:03.560Z,-2.00
2022-12-12T09:22:30.332Z,-1.80
2022-12-12T09:24:57.036Z,-1.60
2022-12-12T09:27:24.174Z,-2.00
2022-12-12T09:29:50.901Z,-2.00
2022-12-12T09:32:24.368Z,-2.00
2022-12-12T09:34:51.813Z,-2.00
2022-12-12T09:37:18.741Z,-1.90
2022-12-12T09:39:45.499Z,-1.80
2022-12-12T09:42:23.279Z,-1.70
2022-12-12T09:44:52.651Z,-1.60
2022-12-12T09:47:39.191Z,-1.40
2022-12-12T09:50:29.421Z,-1.40
2022-12-12T09:53:00.178Z,-1.60
2022-12-12T09:55:49.816Z,-1.60
2022-12-12T09:58:56.496Z,-1.60
2022-12-12T10:01:39.418Z,-1.60
2022-12-12T10:04:17.256Z,-1.50
2022-12-12T10:06:52.318Z,-1.50
2022-12-12T10:09:37.161Z,-1.60
2022-12-12T10:12:08.518Z,-1.40
2022-12-12T10:14:43.748Z,-1.30
2022-12-12T10:17:33.815Z,-1.30
2022-12-12T10:20:12.412Z,-1.10
2022-12-12T10:23:01.163Z,-0.90
2022-12-12T10:25:40.220Z,-0.80
2022-12-12T10:28:16.494Z,-0.50
2022-12-12T10:31:08.735Z,-0.50
2022-12-12T10:34:01.783Z,-0.30
2022-12-12T10:36:37.250Z,-0.40
2022-12-12T10:39:28.199Z,-0.50
2022-12-12T10:42:00.751Z,-0.50
2022-12-12T10:44:48.614Z,-0.30
2022-12-12T10:47:15.579Z,-0.40
2022-12-12T10:49:42.639Z,-0.50
2022-12-12T10:52:27.564Z,-0.50
2022-12-12T10:55:08.801Z,-0.30
2022-12-12T10:57:36.085Z,-0.20
2022-12-12T11:00:18.518Z,0.00
2022-12-12T11:02:45.587Z,0.10
2022-12-12T11:05:25.189Z,0.20
2022-12-12T11:08:00.201Z,0.50
2022-12-12T11:10:34.192Z,0.50
2022-12-12T11:13:01.635Z,0.60
2022-12-12T11:15:41.038Z,0.60
2022-12-12T11:18:16.909Z,0.70
2022-12-12T11:20:50.747Z,0.60
2022-12-12T11:23:21.334Z,0.50
2022-12-12T11:25:55.832Z,0.60
2022-12-12T11:28:24.601Z,0.70
2022-12-12T11:30:55.191Z,0.70
2022-12-12T11:33:32.443Z,0.90
2022-12-12T11:36:01.901Z,1.00
2022-12-12T11:38:35.092Z,0.90
2022-12-12T11:41:03.802Z,0.80
2022-12-12T11:43:32.980Z,0.70
2022-12-12T11:46:17.198Z,0.70
2022-12-12T11:49:05.002Z,0.80
2022-12-12T11:51:41.221Z,1.00
2022-12-12T11:54:19.755Z,1.30
2022-12-12T11:57:04.170Z,1.30
2022-12-12T11:59:46.117Z,1.50
2022-12-12T12:02:54.794Z,1.40
2022-12-12T12:06:09.119Z,1.10
2022-12-12T12:08:41.980Z,1.20
2022-12-12T12:11:14.826Z,1.10
2022-12-12T12:13:52.920Z,1.00
2022-12-12T12:16:56.915Z,1.10
2022-12-12T12:19:23.751Z,1.20
2022-12-12T12:22:21.147Z,1.10
2022-12-12T12:25:19.451Z,1.20
2022-12-12T12:27:55.179Z,1.20
2022-12-12T12:30:31.987Z,1.20
2022-12-12T12:33:05.381Z,1.40
2022-12-12T12:35:37.176Z,1.50
2022-12-12T12:38:19.050Z,1.70
2022-12-12T12:41:00.593Z,1.60
2022-12-12T12:43:33.496Z,1.50
2022-12-12T12:46:36.225Z,1.50
2022-12-12T12:49:33.377Z,1.50
2022-12-12T12:52:06.158Z,1.50
2022-12-12T12:54:36.281Z,1.60
2022-12-12T12:57:10.929Z,1.60
2022-12-12T12:59:42.756Z,1.50
2022-12-12T13:02:53.039Z,1.60
2022-12-12T13:05:31.149Z,1.60
2022-12-12T13:08:04.206Z,1.70
2022-12-12T13:10:32.930Z,1.70
2022-12-12T13:13:19.554Z,1.80
2022-12-12T13:16:02.636Z,2.10
2022-12-12T13:18:44.417Z,2.20
2022-12-12T13:21:24.580Z,2.20
2022-12-12T13:23:56.635Z,1.90
2022-12-12T13:26:33.275Z,1.90
2022-12-12T13:29:41.353Z,1.90
2022-12-12T13:32:24.758Z,1.90
2022-12-12T13:34:59.285Z,1.90
2022-12-12T13:37:28.719Z,1.80
2022-12-12T13:40:05.174Z,1.90
2022-12-12T13:42:58.191Z,2.10
2022-12-12T13:45:44.188Z,2.10
2022-12-12T13:48:35.185Z,2.00
2022-12-12T13:51:32.228Z,1.90
2022-12-12T13:54:13.366Z,2.00
2022-12-12T13:56:45.308Z,1.80
2022-12-12T13:59:53.309Z,1.80
2022-12-12T14:02:22.776Z,1.80
2022-12-12T14:05:07.170Z,1.90
2022-12-12T14:07:34.171Z,1.80
2022-12-12T14:10:15.338Z,1.80
2022-12-12T14:12:43.176Z,1.90
2022-12-12T14:15:29.721Z,1.90
2022-12-12T14:18:00.147Z,1.90
2022-12-12T14:20:36.569Z,1.90
2022-12-12T14:23:09.160Z,1.90
2022-12-12T14:25:40.752Z,1.80
2022-12-12T14:28:20.164Z,1.80
2022-12-12T14:30:52.309Z,1.90
2022-12-12T14:33:53.484Z,1.90
2022-12-12T14:36:23.361Z,1.80
2022-12-12T14:39:07.429Z,1.60
2022-12-12T14:41:38.544Z,1.70
2022-12-12T14:44:36.995Z,1.80
2022-12-12T14:47:08.356Z,1.60
2022-12-12T14:49:35.119Z,1.50
2022-12-12T14:52:02.571Z,1.50
2022-12-12T14:54:31.745Z,1.50
2022-12-12T14:56:59.324Z,1.50
2022-12-12T14:59:29.957Z,1.50
2022-12-12T15:01:59.561Z,1.20
2022-12-12T15:04:38.883Z,1.20
2022-12-12T15:07:27.047Z,1.30
2022-12-12T15:09:54.103Z,1.30
2022-12-12T15:12:26.655Z,1.20
2022-12-12T15:14:57.150Z,1.10
2022-12-12T15:17:23.931Z,1.00
2022-12-12T15:19:58.342Z,1.00
2022-12-12T15:22:34.392Z,1.00
2022-12-12T15:25:15.959Z,1.00
2022-12-12T15:27:52.187Z,0.80
2022-12-12T15:30:41.202Z,0.40
2022-12-12T15:33:17.473Z,0.30
2022-12-12T15:36:02.128Z,0.20
2022-12-12T15:38:30.585Z,0.10
2022-12-12T15:40:59.853Z,0.00
2022-12-12T15:43:28.917Z,-0.20
2022-12-12T15:46:02.682Z,-0.20
2022-12-12T15:48:29.492Z,-0.30
2022-12-12T15:50:59.974Z,-0.50
2022-12-12T15:53:33.527Z,-0.50
2022-12-12T15:56:05.197Z,-0.60
2022-12-12T15:58:42.402Z,-0.70
2022-12-12T16:01:20.897Z,-0.80
2022-12-12T16:04:03.169Z,-0.90
2022-12-12T16:06:33.594Z,-1.00
2022-12-12T16:09:02.118Z,-1.10
2022-12-12T16:11:38.248Z,-1.10
2022-12-12T16:14:43.207Z,-1.10
2022-12-12T16:17:20.586Z,-1.10
2022-12-12T16:20:13.931Z,-1.20
2022-12-12T16:22:49.325Z,-1.10
2022-12-12T16:25:21.567Z,-1.10
2022-12-12T16:27:57.628Z,-1.20
2022-12-12T16:30:25.677Z,-1.10
2022-12-12T16:32:53.170Z,-1.30
2022-12-12T16:35:23.394Z,-1.40
2022-12-12T16:37:52.518Z,-1.40
2022-12-12T16:40:21.150Z,-1.40
2022-12-12T16:43:12.014Z,-1.40
2022-12-12T16:45:39.504Z,-1.40
2022-12-12T16:48:32.169Z,-1.40
2022-12-12T16:51:03.867Z,-1.50
2022-12-12T16:53:30.739Z,-1.40
2022-12-12T16:55:57.782Z,-1.50
2022-12-12T16:58:24.568Z,-1.50
2022-12-12T17:00:55.618Z,-1.50
2022-12-12T17:03:23.742Z,-1.20
2022-12-12T17:05:51.606Z,-1.40
2022-12-12T17:08:19.393Z,-1.50
2022-12-12T17:10:47.858Z,-1.60
2022-12-12T17:13:17.054Z,-1.60
2022-12-12T17:15:43.987Z,-1.60
2022-12-12T17:18:11.017Z,-1.60
2022-12-12T17:20:38.198Z,-1.70
2022-12-12T17:23:29.076Z,-1.70
2022-12-12T17:26:03.099Z,-1.70
2022-12-12T17:28:31.514Z,-1.80
2022-12-12T17:30:58.294Z,-1.80
2022-12-12T17:33:26.187Z,-1.80
2022-12-12T17:36:20.005Z,-1.90
2022-12-12T17:38:46.981Z,-1.90
2022-12-12T17:41:13.831Z,-1.90
2022-12-12T17:43:42.340Z,-2.00
2022-12-12T17:46:16.766Z,-1.90
2022-12-12T17:48:47.895Z,-1.90
2022-12-12T17:51:21.905Z,-1.90
2022-12-12T17:53:51.117Z,-2.00
2022-12-12T17:56:20.851Z,-1.80
2022-12-12T17:58:50.229Z,-1.80
2022-12-12T18:01:26.263Z,-1.90
2022-12-12T18:03:54.285Z,-2.00
2022-12-12T18:06:22.850Z,-2.00
2022-12-12T18:08:50.556Z,-2.00
2022-12-12T18:11:24.558Z,-2.10
2022-12-12T18:13:53.148Z,-2.10
2022-12-12T18:16:20.504Z,-2.10
2022-12-12T18:18:49.495Z,-2.10
2022-12-12T18:21:43.208Z,-1.90
2022-12-12T18:24:06.477Z,-2.00
2022-12-12T18:26:33.349Z,-1.90
2022-12-12T18:29:02.934Z,-2.00
2022-12-12T18:31:29.967Z,-1.80
2022-12-12T18:33:57.463Z,-1.70
2022-12-12T18:36:29.586Z,-1.60
2022-12-12T18:38:57.621Z,-1.60
2022-12-12T18:41:26.340Z,-1.50
2022-12-12T18:43:53.542Z,-1.50
2022-12-12T18:46:22.356Z,-1.60
2022-12-12T18:48:49.224Z,-1.70
2022-12-12T18:51:21.145Z,-1.80
2022-12-12T18:53:48.230Z,-1.80
2022-12-12T18:56:18.601Z,-1.80
2022-12-12T18:58:45.799Z,-1.80
2022-12-12T19:01:14.013Z,-1.70
2022-12-12T19:03:42.737Z,-1.70
2022-12-12T19:06:13.264Z,-1.90
2022-12-12T19:08:40.327Z,-1.80
2022-12-12T19:11:08.533Z,-1.80
2022-12-12T19:13:35.756Z,-1.70
2022-12-12T19:16:14.545Z,-1.80
2022-12-12T19:18:42.735Z,-1.90
2022-12-12T19:21:21.351Z,-2.00
2022-12-12T19:23:48.675Z,-1.80
2022-12-12T19:26:27.072Z,-1.70
2022-12-12T19:28:59.017Z,-1.80
2022-12-12T19:31:26.509Z,-1.80
2022-12-12T19:33:53.568Z,-1.80
2022-12-12T19:36:22.900Z,-1.80
2022-12-12T19:38:50.656Z,-1.90
2022-12-12T19:41:19.294Z,-1.80
2022-12-12T19:43:47.749Z,-1.90
2022-12-12T19:46:26.253Z,-2.00
2022-12-12T19:48:57.526Z,-2.00
2022-12-12T19:51:26.504Z,-1.90
2022-12-12T19:53:55.962Z,-1.80
2022-12-12T19:56:31.736Z,-1.60
2022-12-12T19:58:59.248Z,-1.70
2022-12-12T20:01:28.719Z,-1.70
2022-12-12T20:04:02.609Z,-1.70
2022-12-12T20:06:30.219Z,-1.70
2022-12-12T20:08:59.578Z,-1.60
2022-12-12T20:11:26.978Z,-1.70
2022-12-12T20:13:56.160Z,-2.00
2022-12-12T20:16:25.427Z,-2.00
2022-12-12T20:18:53.205Z,-1.90
2022-12-12T20:21:58.664Z,-2.00
2022-12-12T20:24:09.815Z,-2.10
2022-12-12T20:26:36.975Z,-2.20
2022-12-12T20:29:06.636Z,-2.10
2022-12-12T20:31:36.519Z,-2.00
2022-12-12T20:34:03.908Z,-2.00
2022-12-12T20:36:33.405Z,-2.10
2022-12-12T20:39:01.961Z,-2.20
2022-12-12T20:41:31.375Z,-2.10
2022-12-12T20:43:59.583Z,-2.10
2022-12-12T20:46:32.176Z,-2.20
2022-12-12T20:49:00.597Z,-2.10
2022-12-12T20:51:54.826Z,-2.00
2022-12-12T20:54:19.913Z,-2.10
2022-12-12T20:56:46.856Z,-2.00
2022-12-12T20:59:14.467Z,-2.10
2022-12-12T21:01:41.634Z,-2.20
2022-12-12T21:04:09.528Z,-2.40
2022-12-12T21:06:40.142Z,-2.20
2022-12-12T21:09:09.836Z,-2.30
2022-12-12T21:11:38.136Z,-2.20
2022-12-12T21:14:06.304Z,-2.20
2022-12-12T21:16:37.037Z,-2.00
2022-12-12T21:19:08.004Z,-2.30
2022-12-12T21:21:35.017Z,-2.30
2022-12-12T21:24:02.203Z,-2.40
2022-12-12T21:26:30.785Z,-2.60
2022-12-12T21:29:00.215Z,-2.50
2022-12-12T21:31:29.816Z,-2.60
2022-12-12T21:33:58.069Z,-2.80
2022-12-12T21:36:25.985Z,-2.80
2022-12-12T21:38:54.658Z,-2.80
2022-12-12T21:41:23.376Z,-2.90
2022-12-12T21:43:51.286Z,-2.90
2022-12-12T21:46:20.286Z,-3.00
2022-12-12T21:48:47.684Z,-2.90
2022-12-12T21:51:16.905Z,-3.00
2022-12-12T21:53:43.697Z,-3.00
2022-12-12T21:56:17.398Z,-3.10
2022-12-12T21:58:46.100Z,-3.20
2022-12-12T22:01:15.606Z,-3.10
2022-12-12T22:03:43.541Z,-3.00
2022-12-12T22:06:22.132Z,-3.00
2022-12-12T22:08:49.502Z,-3.20
2022-12-12T22:11:40.212Z,-3.20
2022-12-12T22:14:05.346Z,-3.30
2022-12-12T22:16:35.594Z,-3.20
2022-12-12T22:19:06.303Z,-3.30
2022-12-12T22:21:33.927Z,-3.30
2022-12-12T22:24:01.007Z,-3.40
2022-12-12T22:26:29.495Z,-3.30
2022-12-12T22:28:59.538Z,-3.30
2022-12-12T22:31:28.668Z,-3.20
2022-12-12T22:34:01.596Z,-3.20
2022-12-12T22:36:32.911Z,-3.10
2022-12-12T22:39:00.703Z,-3.20
2022-12-12T22:41:28.971Z,-3.20
2022-12-12T22:43:57.759Z,-3.30
2022-12-12T22:46:26.333Z,-3.40
2022-12-12T22:48:55.192Z,-3.40
2022-12-12T22:51:27.395Z,-3.10
2022-12-12T22:53:58.467Z,-3.30
2022-12-12T22:56:25.835Z,-3.30
2022-12-12T22:58:52.696Z,-3.40
2022-12-12T23:01:22.999Z,-3.40
2022-12-12T23:03:50.127Z,-3.50
2022-12-12T23:06:20.467Z,-3.40
2022-12-12T23:08:56.235Z,-3.40
2022-12-12T23:11:24.829Z,-3.50
2022-12-12T23:13:54.751Z,-3.50
2022-12-12T23:16:24.757Z,-3.50
2022-12-12T23:18:51.931Z,-3.40
2022-12-12T23:21:21.249Z,-3.40
2022-12-12T23:23:48.416Z,-3.40
2022-12-12T23:26:24.123Z,-3.30
2022-12-12T23:28:51.664Z,-3.30
2022-12-12T23:31:22.049Z,-3.30
2022-12-12T23:33:53.163Z,-3.20
2022-12-12T23:36:20.414Z,-3.10
2022-12-12T23:38:47.222Z,-3.00
2022-12-12T23:41:15.821Z,-3.00
2022-12-12T23:43:43.832Z,-3.00
2022-12-12T23:46:31.448Z,-3.10
2022-12-12T23:48:59.233Z,-3.20
2022-12-12T23:51:27.780Z,-3.10
2022-12-12T23:53:59.826Z,-3.10
2022-12-12T23:56:27.917Z,-3.00
2022-12-12T23:58:56.350Z,-3.30
